Time;durP1;ratioP1;P1;durP2;ratioP2;P2;SDS_P1;SDS_P2;PMS_P1;PMS_P2;Temp;Humidity;BMP_temperature;BMP_pressure;BME280_temperature;BME280_humidity;BME280_pressure;Samples;Min_cycle;Max_cycle;Signal;HPM_P1;HPM_P2
2022/01/23 00:03:33;;;;;;;15.40;11.57;;;;;;;7.86;69.60;101880.25;10319172;28;20045;-64
2022/01/23 00:08:34;;;;;;;12.93;11.18;;;;;;;7.82;69.54;101884.84;10320914;28;20128;-63
2022/01/23 00:18:57;;;;;;;14.32;11.05;;;;;;;7.85;69.63;101874.09;10367757;28;20049;-64
2022/01/23 00:34:20;;;;;;;13.68;11.60;;;;;;;7.87;69.54;101866.06;10356216;28;20072;-64
2022/01/23 00:39:21;;;;;;;15.43;11.95;;;;;;;7.87;69.11;101863.41;10359056;28;20061;-64
2022/01/23 00:44:23;;;;;;;14.60;12.05;;;;;;;7.87;69.47;101871.38;10357549;28;20442;-63
2022/01/23 00:49:25;;;;;;;13.43;11.50;;;;;;;7.73;69.86;101867.53;10359710;28;20050;-64
2022/01/23 00:54:26;;;;;;;14.38;12.10;;;;;;;7.65;69.90;101871.44;10353929;28;20450;-65
2022/01/23 00:59:28;;;;;;;16.85;12.65;;;;;;;7.66;70.08;101874.00;10367654;28;20050;-66
2022/01/23 01:04:30;;;;;;;15.80;12.27;;;;;;;7.73;70.16;101883.44;10355486;28;20069;-64
2022/01/23 01:09:31;;;;;;;14.35;11.82;;;;;;;7.74;69.87;101878.97;10355365;28;20125;-63
2022/01/23 01:35:23;;;;;;;16.55;13.02;;;;;;;7.43;70.89;101840.50;10361621;28;20046;-66
2022/01/23 01:40:26;;;;;;;15.95;12.85;;;;;;;7.59;70.61;101851.34;10358963;28;20087;-63
2022/01/23 01:45:31;;;;;;;18.17;13.90;;;;;;;7.72;70.72;101852.53;10347043;28;20184;-64
2022/01/23 01:50:33;;;;;;;;;;;;;;;7.72;70.20;101860.50;10354900;28;20057;-64
2022/01/23 01:55:41;;;;;;;16.40;13.02;;;;;;;7.75;70.38;101851.56;10353638;28;20606;-67
2022/01/23 02:00:53;;;;;;;16.83;14.13;;;;;;;7.61;70.23;101854.78;10368784;28;20630;-64
2022/01/23 02:11:44;;;;;;;17.50;14.07;;;;;;;7.30;71.74;101853.41;10355137;28;20053;-56
2022/01/23 02:59:37;;;;;;;19.38;14.25;;;;;;;7.33;72.04;101869.19;10389976;28;20132;-56
2022/01/23 03:04:48;;;;;;;19.67;15.43;;;;;;;7.54;71.66;101874.53;10388781;28;20132;-56
2022/01/23 03:09:54;;;;;;;17.67;14.80;;;;;;;7.61;70.96;101878.63;10362233;28;20527;-54
2022/01/23 03:15:04;;;;;;;17.48;14.32;;;;;;;7.72;70.60;101871.09;10385458;28;20096;-56
2022/01/23 03:30:54;;;;;;;21.20;16.90;;;;;;;7.57;70.21;101867.31;10394370;28;20255;-56
2022/01/23 03:35:55;;;;;;;20.60;16.58;;;;;;;7.43;70.20;101859.94;10395967;28;20672;-56
2022/01/23 03:40:57;;;;;;;22.33;17.50;;;;;;;7.59;69.65;101869.88;10399497;28;20084;-56
2022/01/23 03:51:19;;;;;;;20.58;15.85;;;;;;;7.69;69.25;101876.53;10398299;28;20045;-57
2022/01/23 03:56:23;;;;;;;20.73;17.40;;;;;;;7.59;69.04;101864.59;10388854;28;24081;-56
2022/01/23 04:01:25;;;;;;;24.63;19.25;;;;;;;7.47;69.20;101849.22;10399810;28;20128;-56
2022/01/23 04:06:26;;;;;;;22.63;18.95;;;;;;;7.59;68.77;101878.69;10392258;28;20391;-56
2022/01/23 04:11:28;;;;;;;25.55;17.55;;;;;;;7.60;68.81;101879.56;10393956;28;20076;-54
2022/01/23 04:16:58;;;;;;;22.60;18.23;;;;;;;7.61;68.51;101892.75;10389273;28;20107;-54
2022/01/23 04:32:59;;;;;;;23.58;17.88;;;;;;;7.64;68.40;101896.19;10387001;28;20103;-54
2022/01/23 05:04:33;;;;;;;23.55;18.48;;;;;;;7.61;68.75;101895.41;10388406;28;20134;-55
2022/01/23 05:09:34;;;;;;;23.02;17.88;;;;;;;7.54;68.10;101887.78;10383517;28;20517;-55
2022/01/23 05:14:42;;;;;;;24.02;18.45;;;;;;;7.53;68.05;101894.00;10384167;28;20122;-55
2022/01/23 05:19:44;;;;;;;18.80;15.23;;;;;;;7.53;68.28;101888.69;10385451;28;20053;-54
2022/01/23 05:24:52;;;;;;;20.52;15.32;;;;;;;7.62;67.40;101904.22;10387370;28;20061;-54
2022/01/23 05:29:54;;;;;;;19.13;14.68;;;;;;;7.64;66.85;101907.69;10383696;28;20107;-55
2022/01/23 05:34:56;;;;;;;19.77;15.80;;;;;;;7.63;66.77;101916.53;10382887;28;20133;-54
2022/01/23 05:39:58;;;;;;;20.67;15.93;;;;;;;7.60;67.13;101919.31;10398388;28;20053;-54
2022/01/23 05:44:59;;;;;;;20.83;16.40;;;;;;;7.65;67.51;101914.69;10393327;28;20106;-55
2022/01/23 05:50:01;;;;;;;22.05;15.77;;;;;;;7.57;67.21;101911.50;10387575;28;20407;-54
2022/01/23 05:55:04;;;;;;;21.77;15.70;;;;;;;7.63;67.08;101913.91;10386873;28;20052;-54
2022/01/23 06:00:06;;;;;;;21.67;15.90;;;;;;;7.65;67.28;101917.34;10375952;28;20135;-55
2022/01/23 06:05:08;;;;;;;21.70;15.82;;;;;;;7.59;67.28;101915.78;10390120;28;20068;-54
2022/01/23 06:10:19;;;;;;;18.10;15.75;;;;;;;7.57;66.87;101922.09;10390050;28;20913;-55
2022/01/23 06:15:21;;;;;;;19.25;16.00;;;;;;;7.52;67.73;101918.75;10385325;28;20139;-56
2022/01/23 06:20:22;;;;;;;21.08;16.17;;;;;;;7.55;67.25;101918.63;10389211;28;20053;-55
2022/01/23 06:25:32;;;;;;;17.75;15.30;;;;;;;7.53;67.44;101915.19;10392569;28;20235;-57
2022/01/23 06:30:34;;;;;;;21.77;16.95;;;;;;;7.54;67.49;101927.53;10384160;28;20451;-55
2022/01/23 06:35:37;;;;;;;21.88;15.95;;;;;;;7.53;67.67;101931.09;10365648;28;20443;-57
2022/01/23 06:40:38;;;;;;;22.17;16.75;;;;;;;7.53;67.89;101947.84;10392731;28;20107;-57
2022/01/23 06:45:40;;;;;;;20.80;17.30;;;;;;;7.48;68.19;101948.97;10388893;28;20079;-55
2022/01/23 06:50:41;;;;;;;24.85;18.52;;;;;;;7.44;68.63;101954.38;10385513;28;20048;-56
2022/01/23 06:55:43;;;;;;;26.92;20.80;;;;;;;7.40;69.50;101962.50;10386142;28;20529;-54
2022/01/23 07:00:45;;;;;;;27.58;20.88;;;;;;;7.37;69.36;101979.41;10363699;28;20044;-55
2022/01/23 07:05:47;;;;;;;25.17;19.23;;;;;;;7.39;69.51;101977.56;10374393;28;20049;-55
2022/01/23 07:10:48;;;;;;;26.70;20.05;;;;;;;7.43;69.47;101986.22;10366110;28;20120;-55
2022/01/23 07:15:50;;;;;;;26.23;19.88;;;;;;;7.43;69.33;101999.47;10371041;28;20059;-56
2022/01/23 07:20:52;;;;;;;24.75;19.98;;;;;;;7.46;68.92;101995.84;10363031;28;20096;-56
2022/01/23 07:25:53;;;;;;;23.08;17.75;;;;;;;7.52;69.41;102006.22;10347476;28;20076;-55
2022/01/23 07:30:59;;;;;;;23.35;19.13;;;;;;;7.59;68.76;102005.03;10365161;28;20267;-55
2022/01/23 07:36:01;;;;;;;23.75;18.58;;;;;;;7.53;68.56;102005.28;10357267;28;20041;-56
2022/01/23 07:41:03;;;;;;;23.65;17.55;;;;;;;7.34;68.77;101979.53;10358737;28;20130;-56
2022/01/23 07:46:04;;;;;;;22.33;17.75;;;;;;;7.55;68.98;102019.34;10366950;28;20072;-57
2022/01/23 07:51:06;;;;;;;25.00;18.92;;;;;;;7.55;68.87;102020.22;10360142;28;20051;-56
2022/01/23 07:56:07;;;;;;;26.55;20.38;;;;;;;7.54;69.29;102025.59;10366518;28;20276;-56
2022/01/23 08:01:09;;;;;;;27.63;21.10;;;;;;;7.61;69.47;102040.28;10366725;28;20492;-56
2022/01/23 08:06:12;;;;;;;28.90;21.80;;;;;;;7.62;69.58;102044.69;10373825;28;20048;-56
2022/01/23 08:11:13;;;;;;;25.95;20.88;;;;;;;7.63;69.74;102049.06;10363397;28;20064;-56
2022/01/23 08:16:15;;;;;;;29.58;23.92;;;;;;;7.67;70.21;102049.78;10363858;28;20275;-56
2022/01/23 08:21:16;;;;;;;28.65;22.92;;;;;;;7.63;70.26;102038.47;10367512;28;20242;-56
2022/01/23 08:26:20;;;;;;;31.48;24.73;;;;;;;7.70;70.34;102050.56;10368395;28;20037;-55
2022/01/23 08:31:21;;;;;;;31.10;23.73;;;;;;;7.64;70.57;102040.19;10364519;28;20072;-55
2022/01/23 08:36:23;;;;;;;29.10;21.90;;;;;;;7.72;70.44;102047.84;10365400;28;20520;-56
2022/01/23 08:46:26;;;;;;;22.02;17.95;;;;;;;7.84;68.86;102046.50;10361989;28;20130;-55
2022/01/23 08:51:29;;;;;;;24.10;21.42;;;;;;;7.94;68.32;102053.13;10364138;28;20057;-56
2022/01/23 08:56:31;;;;;;;21.67;17.38;;;;;;;7.96;67.71;102041.53;10367345;28;20082;-56
2022/01/23 09:01:34;;;;;;;21.38;16.52;;;;;;;8.07;67.39;102046.38;10344428;28;20134;-56
2022/01/23 09:06:35;;;;;;;20.45;15.85;;;;;;;8.13;67.43;102054.09;10366379;28;20052;-55
2022/01/23 09:16:50;;;;;;;20.13;14.75;;;;;;;8.16;66.54;102057.56;10361778;28;20146;-55
2022/01/23 09:21:53;;;;;;;17.70;14.52;;;;;;;8.11;65.74;102048.00;10365941;28;20136;-56
2022/01/23 09:27:01;;;;;;;14.38;12.45;;;;;;;8.19;65.41;102046.81;10364971;28;20437;-57
2022/01/23 09:32:06;;;;;;;17.90;14.20;;;;;;;8.36;65.08;102054.94;10360891;28;20149;-56
2022/01/23 09:37:11;;;;;;;16.50;13.18;;;;;;;8.46;64.51;102060.75;10347320;28;20231;-56
2022/01/23 09:42:22;;;;;;;15.77;12.48;;;;;;;8.52;64.85;102067.59;10362532;28;20123;-56
2022/01/23 09:47:24;;;;;;;14.27;10.77;;;;;;;8.47;64.00;102070.44;10366573;28;20158;-58
2022/01/23 09:52:29;;;;;;;12.18;10.10;;;;;;;8.47;64.09;102068.63;10365520;28;20167;-55
2022/01/23 09:57:33;;;;;;;12.73;10.18;;;;;;;8.51;64.02;102072.00;10361507;28;20049;-57
2022/01/23 10:02:34;;;;;;;12.88;9.68;;;;;;;8.54;64.28;102073.69;10359493;28;20091;-57
2022/01/23 10:07:40;;;;;;;14.20;10.27;;;;;;;8.49;64.02;102072.06;10363105;28;20060;-56
2022/01/23 10:12:46;;;;;;;12.15;9.50;;;;;;;8.61;63.46;102076.00;10365335;28;20534;-56
2022/01/23 10:17:49;;;;;;;10.93;9.73;;;;;;;8.65;63.73;102079.41;10365805;28;20683;-55
2022/01/23 10:22:52;;;;;;;9.60;7.53;;;;;;;8.74;62.88;102076.34;10356163;28;20170;-56
2022/01/23 10:27:56;;;;;;;9.70;7.43;;;;;;;8.70;62.53;102077.41;10344146;28;20150;-56
2022/01/23 10:33:07;;;;;;;7.57;6.17;;;;;;;8.78;61.88;102062.00;10365784;28;20135;-56
2022/01/23 10:38:13;;;;;;;5.95;5.05;;;;;;;9.00;60.81;102069.00;10365616;28;20162;-57
2022/01/23 10:48:45;;;;;;;6.68;5.85;;;;;;;9.28;59.75;102065.97;10341359;28;20576;-56
2022/01/23 10:54:02;;;;;;;7.03;5.65;;;;;;;9.41;58.91;102060.91;10360292;28;20060;-56
2022/01/23 10:59:10;;;;;;;7.43;5.10;;;;;;;9.46;58.14;102053.59;10363934;28;20124;-56
2022/01/23 11:04:14;;;;;;;7.88;5.70;;;;;;;9.65;58.04;102052.72;10358429;28;20778;-56
2022/01/23 11:09:15;;;;;;;5.97;3.97;;;;;;;9.75;56.78;102064.66;10357054;28;20123;-55
2022/01/23 11:19:43;;;;;;;4.68;3.53;;;;;;;9.96;55.55;102051.25;10356990;28;20906;-56
2022/01/23 11:24:47;;;;;;;5.38;3.75;;;;;;;10.05;55.72;102041.00;10349538;28;20049;-56
2022/01/23 11:30:04;;;;;;;7.72;4.50;;;;;;;9.77;56.40;102040.63;10349060;28;20689;-57
2022/01/23 11:35:13;;;;;;;4.30;3.72;;;;;;;10.05;54.51;102018.84;10357951;28;20060;-56
2022/01/23 11:56:24;;;;;;;2.45;2.00;;;;;;;12.00;48.23;102010.13;10209154;28;20137;-55
2022/01/23 12:01:26;;;;;;;3.05;1.80;;;;;;;11.36;48.66;102019.13;10330399;28;20625;-56
2022/01/23 12:06:28;;;;;;;2.38;1.67;;;;;;;11.01;50.26;102003.28;10361036;28;20502;-56
2022/01/23 12:11:40;;;;;;;2.78;2.38;;;;;;;10.77;50.99;102000.97;10365854;28;20425;-57
2022/01/23 12:16:57;;;;;;;2.50;1.70;;;;;;;10.35;51.73;101957.91;10365087;28;20115;-56
2022/01/23 12:22:24;;;;;;;2.83;1.88;;;;;;;10.14;51.96;101998.91;10364064;28;20411;-57
2022/01/23 12:27:28;;;;;;;2.08;1.75;;;;;;;9.95;51.46;101996.31;10366151;28;20384;-55
2022/01/23 12:32:30;;;;;;;3.70;1.70;;;;;;;9.86;52.19;101995.84;10364214;28;20144;-56
2022/01/23 12:37:59;;;;;;;1.67;0.75;;;;;;;9.80;49.25;101988.16;10348864;28;20457;-55
2022/01/23 12:43:07;;;;;;;4.55;1.10;;;;;;;9.55;50.19;101997.34;10348579;28;20072;-57
2022/01/23 12:48:43;;;;;;;3.05;1.48;;;;;;;9.55;48.85;101981.38;10367053;28;20073;-55
2022/01/23 12:53:46;;;;;;;1.80;1.33;;;;;;;9.08;49.23;101981.84;10349698;28;20053;-57
2022/01/23 12:58:59;;;;;;;2.03;0.93;;;;;;;9.31;49.29;101985.25;10364636;28;20176;-56
2022/01/23 13:04:04;;;;;;;1.65;1.17;;;;;;;9.37;48.63;101982.28;10360847;28;20119;-56
2022/01/23 13:09:27;;;;;;;1.83;1.45;;;;;;;9.34;48.83;101977.97;10348451;28;20095;-56
2022/01/23 13:30:55;;;;;;;2.95;2.17;;;;;;;9.12;50.04;101975.47;10363673;28;20180;-56
2022/01/23 13:35:58;;;;;;;2.67;1.97;;;;;;;9.20;50.86;101993.69;10363122;28;20135;-55
2022/01/23 13:41:09;;;;;;;3.78;2.50;;;;;;;9.07;50.97;101979.25;10349640;28;20367;-56
2022/01/23 14:02:20;;;;;;;3.38;2.42;;;;;;;9.10;52.56;101990.63;10365953;28;20136;-56
2022/01/23 14:07:25;;;;;;;2.50;2.00;;;;;;;9.03;52.42;101984.72;10398797;22;20150;-61
2022/01/23 14:12:32;;;;;;;3.40;2.10;;;;;;;9.02;52.18;101996.28;10536118;27;20544;-59
2022/01/23 14:18:12;;;;;;;2.20;1.90;;;;;;;8.80;51.94;101980.47;10540189;28;20050;-58
2022/01/23 14:23:20;;;;;;;2.80;1.98;;;;;;;8.92;52.85;101989.69;10545069;27;20365;-59
2022/01/23 14:28:28;;;;;;;3.25;2.15;;;;;;;8.90;52.19;101985.34;10557819;27;20044;-58
2022/01/23 14:33:34;;;;;;;2.47;1.75;;;;;;;8.88;52.99;101987.25;10534759;28;20134;-59
2022/01/23 14:39:04;;;;;;;2.20;1.70;;;;;;;8.80;53.62;101987.59;10536852;28;20139;-59
2022/01/23 14:44:25;;;;;;;4.70;2.03;;;;;;;8.74;53.44;101972.78;10537827;28;20047;-58
2022/01/23 14:49:30;;;;;;;5.45;2.10;;;;;;;8.77;53.39;101974.44;10540083;27;20381;-58
2022/01/23 14:54:32;;;;;;;4.43;2.40;;;;;;;8.74;53.32;101970.13;10541054;27;20048;-59
2022/01/23 14:59:35;;;;;;;2.10;1.50;;;;;;;8.79;52.51;101973.44;10542826;28;20058;-58
2022/01/23 15:04:46;;;;;;;2.13;1.45;;;;;;;8.77;52.83;101980.63;10537843;28;20131;-58
2022/01/23 15:09:50;;;;;;;3.05;2.08;;;;;;;8.72;51.97;101976.44;10547398;27;20397;-58
2022/01/23 15:14:52;;;;;;;4.07;2.67;;;;;;;8.61;52.32;101974.28;10543342;27;20126;-58
2022/01/23 15:19:54;;;;;;;1.92;1.45;;;;;;;8.67;52.07;101981.97;10542216;27;20182;-58
2022/01/23 15:24:55;;;;;;;2.53;1.80;;;;;;;8.54;52.26;101983.44;10549335;27;20065;-58
2022/01/23 15:29:56;;;;;;;1.80;1.45;;;;;;;8.54;52.68;101983.44;10546993;27;20054;-58
2022/01/23 15:34:58;;;;;;;4.40;2.05;;;;;;;8.55;52.11;101979.84;10563666;27;20135;-59
2022/01/23 15:39:59;;;;;;;2.28;1.30;;;;;;;8.44;52.16;101973.22;10551021;27;20264;-58
2022/01/23 15:45:01;;;;;;;1.77;1.25;;;;;;;8.44;52.21;101977.69;10548495;27;20062;-60
2022/01/23 15:50:04;;;;;;;5.18;3.60;;;;;;;8.47;52.56;101973.09;10547032;27;20369;-59
2022/01/23 15:55:07;;;;;;;2.58;1.55;;;;;;;8.42;53.03;101983.03;10542799;27;20111;-58
2022/01/23 16:00:11;;;;;;;2.20;1.48;;;;;;;8.31;52.85;101970.19;10545860;27;20046;-59
2022/01/23 16:05:13;;;;;;;3.28;1.70;;;;;;;8.36;53.26;101985.06;10546072;27;20047;-60
2022/01/23 16:10:15;;;;;;;3.05;2.33;;;;;;;8.40;53.50;101995.47;10538344;22;20229;-70
2022/01/23 16:15:16;;;;;;;3.08;1.90;;;;;;;8.36;53.52;101993.91;10500729;28;20133;-73
2022/01/23 16:20:18;;;;;;;2.50;1.95;;;;;;;8.35;54.24;102000.13;10509158;28;20050;-71
2022/01/23 16:25:21;;;;;;;3.40;1.75;;;;;;;8.33;54.28;101999.31;10510052;28;20351;-70
2022/01/23 16:30:23;;;;;;;1.50;1.38;;;;;;;8.26;54.12;101998.75;10504919;28;20855;-71
2022/01/23 16:35:28;;;;;;;3.45;1.65;;;;;;;8.25;54.74;102009.41;10510001;28;20048;-70
2022/01/23 16:40:30;;;;;;;3.00;2.03;;;;;;;8.28;55.06;101998.69;10510683;28;20269;-71
2022/01/23 16:45:31;;;;;;;1.75;1.35;;;;;;;8.24;54.14;102007.69;10509725;28;20063;-73
2022/01/23 16:50:35;;;;;;;3.78;1.92;;;;;;;8.18;54.87;102003.53;10507304;28;20525;-70
2022/01/23 16:55:36;;;;;;;2.15;1.65;;;;;;;8.18;54.63;102010.59;10505793;28;20099;-71
2022/01/23 17:00:38;;;;;;;3.38;2.00;;;;;;;8.12;54.16;101999.34;10507970;28;20064;-72
2022/01/23 17:05:45;;;;;;;1.60;1.35;;;;;;;8.14;53.92;102000.13;10488490;28;20410;-73
2022/01/23 17:10:47;;;;;;;2.00;1.20;;;;;;;8.16;54.01;102007.16;10509621;28;20194;-74
2022/01/23 17:15:49;;;;;;;4.35;3.28;;;;;;;8.20;53.80;102011.41;10507855;28;20040;-74
2022/01/23 17:20:50;;;;;;;4.18;2.88;;;;;;;8.22;53.98;102004.25;10510361;28;22262;-73
2022/01/23 17:25:52;;;;;;;1.70;1.25;;;;;;;8.21;54.01;101999.84;10500208;28;20131;-72
2022/01/23 17:30:53;;;;;;;1.27;1.17;;;;;;;8.19;53.81;101999.94;10494984;28;20048;-71
2022/01/23 17:35:55;;;;;;;5.63;5.10;;;;;;;8.23;53.97;102000.69;10481602;28;20055;-76
2022/01/23 17:40:56;;;;;;;5.07;4.68;;;;;;;8.13;54.49;101998.38;10487789;28;20304;-74
2022/01/23 17:46:00;;;;;;;3.95;3.55;;;;;;;8.12;54.47;101999.34;10491498;28;20107;-74
2022/01/23 17:51:04;;;;;;;4.55;4.18;;;;;;;8.12;55.04;102004.63;10489400;28;20048;-74
2022/01/23 17:56:06;;;;;;;;;;;;;;;8.23;55.04;102000.69;10493117;28;20069;-73
2022/01/23 18:01:09;;;;;;;2.92;1.63;;;;;;;8.18;54.82;101995.56;10490440;28;20446;-72
2022/01/23 18:06:22;;;;;;;4.07;2.50;;;;;;;8.13;54.98;101994.88;10489792;28;20169;-72
2022/01/23 18:11:28;;;;;;;3.38;1.90;;;;;;;8.14;55.14;101997.47;10485771;28;20254;-72
2022/01/23 18:16:31;;;;;;;2.83;2.30;;;;;;;8.09;55.17;101994.16;10489248;28;20048;-74
2022/01/23 18:21:33;;;;;;;4.00;3.35;;;;;;;8.08;55.78;102007.50;10511826;28;20060;-72
2022/01/23 18:26:36;;;;;;;3.45;2.78;;;;;;;8.10;56.37;102003.81;10511516;28;20055;-74
2022/01/23 18:31:38;;;;;;;4.07;3.03;;;;;;;7.99;56.85;101999.88;10511410;28;20461;-74
2022/01/23 18:36:40;;;;;;;4.20;3.20;;;;;;;7.99;57.50;102013.16;10490757;28;20064;-74
2022/01/23 18:41:42;;;;;;;5.28;4.50;;;;;;;7.95;57.61;102015.94;10490800;28;20064;-74
2022/01/23 18:46:43;;;;;;;4.10;3.42;;;;;;;7.87;58.28;102010.09;10492067;28;20514;-74
2022/01/23 18:51:49;;;;;;;4.43;3.10;;;;;;;7.89;59.11;102018.84;10486758;28;20150;-72
2022/01/23 18:56:57;;;;;;;4.95;3.88;;;;;;;7.93;59.29;102017.78;10493843;28;20536;-74
2022/01/23 19:02:02;;;;;;;3.38;3.00;;;;;;;7.91;59.39;102013.47;10487872;28;20139;-75
2022/01/23 19:12:25;;;;;;;3.88;3.03;;;;;;;7.86;59.54;102002.22;10486706;28;20122;-74
2022/01/23 19:17:26;;;;;;;3.92;3.47;;;;;;;7.88;59.67;101997.69;10489140;28;20128;-73
2022/01/23 19:22:33;;;;;;;2.80;2.50;;;;;;;7.83;60.05;101997.03;10481868;28;20079;-74
2022/01/23 19:27:36;;;;;;;4.45;3.40;;;;;;;7.85;59.93;102006.66;10478250;28;20052;-72
2022/01/23 19:32:37;;;;;;;2.97;2.67;;;;;;;7.83;59.95;102005.00;10489588;28;20566;-72
2022/01/23 19:37:39;;;;;;;3.22;2.70;;;;;;;7.82;59.49;102012.09;10487480;28;20056;-74
2022/01/23 19:43:09;;;;;;;2.75;2.28;;;;;;;7.79;59.90;102013.06;10492836;28;20040;-74
2022/01/23 19:48:25;;;;;;;4.53;3.50;;;;;;;7.83;59.80;102011.13;10490323;28;20563;-74
2022/01/23 19:53:27;;;;;;;3.55;2.80;;;;;;;7.75;59.86;102006.16;10490883;28;20165;-72
2022/01/23 19:58:28;;;;;;;3.80;2.85;;;;;;;7.74;59.82;102006.22;10489883;28;20135;-75
2022/01/23 20:03:30;;;;;;;7.55;4.75;;;;;;;7.80;60.52;102005.97;10499172;28;20079;-72
2022/01/23 20:08:31;;;;;;;22.25;8.57;;;;;;;7.68;60.86;102015.28;10496591;28;20164;-74
2022/01/23 20:13:32;;;;;;;4.75;3.60;;;;;;;7.73;60.03;102010.66;10494529;28;20062;-77
2022/01/23 20:18:34;;;;;;;2.40;2.00;;;;;;;7.70;58.95;102013.44;10500530;28;20131;-71
2022/01/23 20:23:36;;;;;;;2.90;1.90;;;;;;;7.58;58.82;102019.22;10499246;28;20152;-72
2022/01/23 20:28:37;;;;;;;2.03;1.30;;;;;;;7.59;58.10;102019.16;10494750;28;20578;-74
2022/01/23 20:33:39;;;;;;;2.03;1.85;;;;;;;7.58;58.51;102024.50;10497140;28;20139;-75
2022/01/23 20:38:44;;;;;;;2.78;1.70;;;;;;;7.38;59.80;102022.66;10499145;28;20148;-72
2022/01/23 20:43:47;;;;;;;2.03;1.83;;;;;;;7.40;59.74;102010.19;10497919;28;20502;-73
2022/01/23 20:48:49;;;;;;;3.15;2.47;;;;;;;7.43;59.66;102024.22;10495659;28;20059;-72
2022/01/23 20:53:51;;;;;;;2.35;2.10;;;;;;;7.49;59.27;102024.88;10495238;28;20455;-74
2022/01/23 20:58:54;;;;;;;4.07;2.25;;;;;;;7.49;59.59;102035.47;10496273;28;20066;-73
2022/01/23 21:03:56;;;;;;;4.68;2.45;;;;;;;7.48;59.31;102034.63;10495415;28;20078;-74
2022/01/23 21:08:58;;;;;;;3.10;2.63;;;;;;;7.42;59.47;102029.56;10495234;28;20064;-74
2022/01/23 21:19:45;;;;;;;3.05;2.47;;;;;;;7.32;59.97;102025.53;10499067;28;20440;-73
2022/01/23 21:40:43;;;;;;;5.47;1.73;;;;;;;7.31;60.35;102032.66;10528377;28;20074;-73
2022/01/23 21:45:45;;;;;;;1.85;1.30;;;;;;;7.30;60.65;102024.75;10514767;28;20063;-74
2022/01/23 21:50:48;;;;;;;1.85;1.13;;;;;;;7.21;60.31;102018.88;10500661;28;20398;-75
2022/01/23 21:55:49;;;;;;;2.30;1.20;;;;;;;7.07;60.46;102027.34;10489358;28;20060;-74
2022/01/23 22:00:51;;;;;;;2.38;1.20;;;;;;;7.06;60.81;102016.81;10492076;28;20799;-73
2022/01/23 22:05:54;;;;;;;1.75;1.08;;;;;;;7.05;61.09;102020.38;10495429;28;20052;-74
2022/01/23 22:11:15;;;;;;;1.35;1.00;;;;;;;7.10;60.63;102012.25;10510197;28;20040;-72
2022/01/23 22:16:17;;;;;;;1.60;1.20;;;;;;;7.15;61.37;102012.97;10501795;28;20103;-73
2022/01/23 22:21:27;;;;;;;2.85;1.45;;;;;;;7.19;60.61;102011.91;10500376;28;20542;-74
2022/01/23 22:26:42;;;;;;;1.77;1.20;;;;;;;7.28;59.83;102016.88;10527165;28;20063;-75
2022/01/23 22:31:45;;;;;;;1.47;1.20;;;;;;;7.23;59.88;102002.91;10507270;28;20191;-72
2022/01/23 22:36:49;;;;;;;1.20;0.77;;;;;;;7.23;60.13;102014.38;10506326;28;20081;-74
2022/01/23 22:41:50;;;;;;;2.08;1.30;;;;;;;7.12;60.42;102005.13;10506463;28;20131;-74
2022/01/23 22:46:52;;;;;;;1.73;1.00;;;;;;;7.01;60.36;102013.47;10508497;28;20575;-73
2022/01/23 22:51:54;;;;;;;1.42;0.68;;;;;;;7.08;60.19;102020.25;10505935;28;20426;-74
2022/01/23 22:56:55;;;;;;;1.10;0.85;;;;;;;7.07;60.63;102008.81;10506917;28;20331;-73
2022/01/23 23:01:57;;;;;;;1.20;0.65;;;;;;;7.12;60.04;101997.19;10506199;28;20048;-73
2022/01/23 23:06:58;;;;;;;1.48;0.60;;;;;;;7.07;60.23;102006.16;10502095;28;20435;-73
2022/01/23 23:12:00;;;;;;;0.80;0.47;;;;;;;6.91;60.71;102002.38;10498411;28;20631;-75
2022/01/23 23:17:03;;;;;;;1.85;0.50;;;;;;;6.96;61.16;102003.03;10503497;28;20075;-72
2022/01/23 23:22:05;;;;;;;0.43;0.30;;;;;;;6.99;61.21;102004.72;10504016;28;20115;-72
2022/01/23 23:27:11;;;;;;;0.82;0.50;;;;;;;6.86;61.33;101999.00;10505293;28;20048;-73
2022/01/23 23:32:12;;;;;;;1.67;0.82;;;;;;;6.93;61.47;102007.59;10511445;28;22298;-73
2022/01/23 23:37:13;;;;;;;1.15;0.55;;;;;;;6.97;61.65;102010.06;10509876;28;20044;-73
2022/01/23 23:42:24;;;;;;;1.23;0.30;;;;;;;6.99;61.27;102000.28;10506331;28;20350;-72
2022/01/23 23:47:27;;;;;;;0.38;0.17;;;;;;;6.97;61.46;102002.13;10513169;28;20131;-73
2022/01/23 23:52:44;;;;;;;1.23;0.30;;;;;;;7.06;61.49;102001.78;10538290;23;20228;-60
2022/01/23 23:57:48;;;;;;;1.42;0.80;;;;;;;7.01;61.29;101986.97;10483730;28;20135;-61
